Time;durP1;ratioP1;P1;durP2;ratioP2;P2;SDS_P1;SDS_P2;PMS_P1;PMS_P2;Temp;Humidity;BMP_temperature;BMP_pressure;BME280_temperature;BME280_humidity;BME280_pressure;Samples;Min_cycle;Max_cycle;Signal;HPM_P1;HPM_P2
2021/09/03 00:01:19;;;;;;;7.22;5.65;;;16.10;88.00;;;;;;5048290;28;20032;-65
2021/09/03 00:03:44;;;;;;;7.75;6.00;;;16.10;88.20;;;;;;5060829;28;20040;-65
2021/09/03 00:06:10;;;;;;;9.55;6.38;;;16.00;88.30;;;;;;5067759;28;20035;-65
2021/09/03 00:08:36;;;;;;;9.00;6.22;;;16.00;88.50;;;;;;5041935;28;20017;-65
2021/09/03 00:11:01;;;;;;;10.48;5.95;;;15.90;88.70;;;;;;5042465;28;20056;-65
2021/09/03 00:13:27;;;;;;;8.20;5.47;;;15.90;88.90;;;;;;5070845;28;20119;-65
2021/09/03 00:15:53;;;;;;;9.02;5.53;;;15.90;89.10;;;;;;5070600;28;20024;-65
2021/09/03 00:18:18;;;;;;;7.72;5.85;;;15.80;89.20;;;;;;5066549;28;20060;-65
2021/09/03 00:20:44;;;;;;;9.60;6.75;;;15.80;89.30;;;;;;5068883;28;20115;-65
2021/09/03 00:23:10;;;;;;;8.25;5.47;;;15.80;89.50;;;;;;5069630;28;20020;-65
2021/09/03 00:25:35;;;;;;;9.25;6.35;;;15.70;89.60;;;;;;5063646;28;20036;-65
2021/09/03 00:28:01;;;;;;;8.57;5.90;;;15.70;89.80;;;;;;5045955;28;20373;-65
2021/09/03 00:30:26;;;;;;;9.57;6.25;;;15.70;89.90;;;;;;5062426;28;20033;-65
2021/09/03 00:32:52;;;;;;;7.30;6.13;;;15.70;90.00;;;;;;5066938;28;20070;-65
2021/09/03 00:35:17;;;;;;;8.90;6.18;;;15.70;90.00;;;;;;5066103;28;20042;-65
2021/09/03 00:37:43;;;;;;;8.80;6.30;;;15.60;90.10;;;;;;5061424;28;20053;-65
2021/09/03 00:40:09;;;;;;;9.35;6.13;;;15.60;90.10;;;;;;5044426;28;20072;-65
2021/09/03 00:42:34;;;;;;;10.65;7.57;;;15.60;90.20;;;;;;5071061;28;20052;-65
2021/09/03 00:45:00;;;;;;;9.25;6.57;;;15.60;90.20;;;;;;5057470;28;20017;-65
2021/09/03 00:47:26;;;;;;;11.20;7.22;;;15.60;90.20;;;;;;5063103;28;20096;-65
2021/09/03 00:49:52;;;;;;;11.95;7.22;;;15.60;90.30;;;;;;5065780;28;20017;-65
2021/09/03 00:52:17;;;;;;;10.25;7.43;;;15.50;90.40;;;;;;5058878;28;20029;-65
2021/09/03 00:54:43;;;;;;;10.88;7.35;;;15.40;90.60;;;;;;5070615;28;20027;-65
2021/09/03 00:57:10;;;;;;;10.93;7.90;;;15.40;90.70;;;;;;5046417;28;20028;-65
2021/09/03 00:59:36;;;;;;;12.55;7.70;;;15.40;91.10;;;;;;5062831;28;20032;-65
2021/09/03 01:02:01;;;;;;;14.68;8.73;;;15.30;90.90;;;;;;5044261;28;20508;-65
2021/09/03 01:04:27;;;;;;;11.52;7.78;;;15.30;91.00;;;;;;5065841;28;20016;-65
2021/09/03 01:06:53;;;;;;;11.45;7.30;;;15.30;91.10;;;;;;5070179;28;20031;-65
2021/09/03 01:09:18;;;;;;;10.40;7.00;;;15.30;91.20;;;;;;5065407;28;20025;-65
2021/09/03 01:11:44;;;;;;;11.15;7.70;;;15.30;91.30;;;;;;5061615;28;20044;-65
2021/09/03 01:14:09;;;;;;;9.32;7.22;;;15.20;91.30;;;;;;5068990;28;20036;-65
2021/09/03 01:16:35;;;;;;;11.23;7.88;;;15.20;91.40;;;;;;5065463;28;20056;-65
2021/09/03 01:19:00;;;;;;;12.00;7.85;;;15.20;91.50;;;;;;5066843;28;20099;-65
2021/09/03 01:21:27;;;;;;;12.35;7.78;;;15.10;91.50;;;;;;5050089;28;20387;-65
2021/09/03 01:23:52;;;;;;;11.60;8.07;;;15.10;91.60;;;;;;5066944;28;20021;-65
2021/09/03 01:26:18;;;;;;;12.32;8.20;;;15.00;91.70;;;;;;5067460;28;20027;-65
2021/09/03 01:28:46;;;;;;;12.13;8.63;;;15.00;91.80;;;;;;5066063;28;20021;-65
2021/09/03 01:31:12;;;;;;;13.13;8.52;;;15.00;91.90;;;;;;5042929;28;20024;-65
2021/09/03 01:33:37;;;;;;;11.23;8.50;;;15.00;92.00;;;;;;5064050;28;20039;-65
2021/09/03 01:36:03;;;;;;;10.90;7.38;;;15.00;92.10;;;;;;5065327;28;20431;-65
2021/09/03 01:38:28;;;;;;;11.93;8.27;;;14.90;92.10;;;;;;5066603;28;20388;-65
2021/09/03 01:40:54;;;;;;;13.75;8.15;;;14.90;92.20;;;;;;5065552;28;20075;-65
2021/09/03 01:43:20;;;;;;;14.05;7.35;;;14.90;92.30;;;;;;5072024;28;20037;-65
2021/09/03 01:45:45;;;;;;;11.25;7.82;;;14.90;92.30;;;;;;5061285;28;20112;-65
2021/09/03 01:48:11;;;;;;;12.27;7.50;;;14.80;92.30;;;;;;5064191;28;20070;-65
2021/09/03 01:50:36;;;;;;;13.57;7.75;;;14.80;92.40;;;;;;5068528;28;20033;-65
2021/09/03 01:53:02;;;;;;;15.63;8.88;;;14.80;92.50;;;;;;5065148;28;20032;-65
2021/09/03 01:55:27;;;;;;;12.00;8.52;;;14.80;92.50;;;;;;5065629;28;20028;-65
2021/09/03 01:57:53;;;;;;;11.82;7.50;;;14.80;92.60;;;;;;5052321;28;20490;-65
2021/09/03 02:00:18;;;;;;;12.38;8.18;;;14.80;92.60;;;;;;5068194;28;20032;-65
2021/09/03 02:02:44;;;;;;;10.77;7.40;;;14.70;92.70;;;;;;5066606;28;20012;-65
2021/09/03 02:05:10;;;;;;;13.70;8.52;;;14.70;92.70;;;;;;5066193;28;20025;-65
2021/09/03 02:07:35;;;;;;;10.15;8.00;;;14.70;92.80;;;;;;5062569;28;20059;-65
2021/09/03 02:10:03;;;;;;;14.15;8.93;;;14.70;92.90;;;;;;5049890;28;20044;-65
2021/09/03 02:12:28;;;;;;;12.40;8.60;;;14.60;93.00;;;;;;5057783;28;20029;-65
2021/09/03 02:14:54;;;;;;;11.32;7.72;;;14.60;93.00;;;;;;5065437;28;20023;-65
2021/09/03 02:17:19;;;;;;;11.38;7.63;;;14.60;93.10;;;;;;5058983;28;20020;-65
2021/09/03 02:19:45;;;;;;;11.02;7.45;;;14.60;93.10;;;;;;5060084;28;20020;-65
2021/09/03 02:22:10;;;;;;;10.15;7.93;;;14.60;93.10;;;;;;5063891;28;20480;-65
2021/09/03 02:24:36;;;;;;;12.45;8.45;;;14.60;93.20;;;;;;5056000;28;20029;-65
2021/09/03 02:27:02;;;;;;;11.65;7.03;;;14.50;93.20;;;;;;5064133;28;20029;-65
2021/09/03 02:29:27;;;;;;;10.10;7.80;;;14.50;93.60;;;;;;5064249;28;20460;-65
2021/09/03 02:31:54;;;;;;;10.88;7.93;;;14.50;93.30;;;;;;5045669;28;20391;-65
2021/09/03 02:34:21;;;;;;;12.50;8.73;;;14.50;93.40;;;;;;5069006;28;20051;-65
2021/09/03 02:36:46;;;;;;;11.68;8.15;;;14.50;93.50;;;;;;5061774;28;20486;-65
2021/09/03 02:39:12;;;;;;;11.20;8.23;;;14.40;93.50;;;;;;5060979;28;20053;-65
2021/09/03 02:41:37;;;;;;;12.85;8.48;;;14.40;93.50;;;;;;5046152;28;20029;-65
2021/09/03 02:44:03;;;;;;;11.57;7.97;;;14.40;93.60;;;;;;5062843;28;20039;-65
2021/09/03 02:46:28;;;;;;;10.73;7.78;;;14.40;93.60;;;;;;5047517;28;20579;-65
2021/09/03 02:48:54;;;;;;;11.15;8.30;;;14.40;93.60;;;;;;5057291;28;20100;-65
2021/09/03 02:51:19;;;;;;;11.73;9.07;;;14.40;93.70;;;;;;5063545;28;20040;-65
2021/09/03 02:53:45;;;;;;;12.23;8.25;;;14.40;93.70;;;;;;5063208;28;20480;-65
2021/09/03 02:56:10;;;;;;;12.07;7.93;;;14.40;93.80;;;;;;5065151;28;20036;-65
2021/09/03 02:58:36;;;;;;;11.43;7.88;;;14.40;93.80;;;;;;5055552;28;20020;-65
2021/09/03 03:01:01;;;;;;;13.30;8.73;;;14.40;93.80;;;;;;5038363;28;20017;-65
2021/09/03 03:03:27;;;;;;;12.77;8.73;;;14.30;93.90;;;;;;5069598;28;20012;-65
2021/09/03 03:05:53;;;;;;;13.88;9.20;;;14.30;93.90;;;;;;5045156;28;20104;-65
2021/09/03 03:08:18;;;;;;;14.90;10.65;;;14.30;93.90;;;;;;5068136;28;20024;-65
2021/09/03 03:10:44;;;;;;;12.90;9.52;;;14.30;94.00;;;;;;5068252;28;20052;-65
2021/09/03 03:13:26;;;;;;;18.25;11.68;;;14.30;94.10;;;;;;5062107;28;20099;-65
2021/09/03 03:15:51;;;;;;;13.82;9.98;;;14.20;94.50;;;;;;5053524;28;20473;-65
2021/09/03 03:18:17;;;;;;;16.63;12.18;;;14.20;94.40;;;;;;5045276;28;20032;-65
2021/09/03 03:20:44;;;;;;;14.98;10.25;;;14.10;94.50;;;;;;5063054;28;20035;-65
2021/09/03 03:23:10;;;;;;;13.88;10.43;;;14.10;94.60;;;;;;5048380;28;20016;-65
2021/09/03 03:25:35;;;;;;;14.77;11.10;;;14.10;94.70;;;;;;5048014;28;20024;-65
2021/09/03 03:28:01;;;;;;;17.30;11.68;;;14.10;94.80;;;;;;5062048;28;20032;-65
2021/09/03 03:30:27;;;;;;;14.60;10.60;;;14.00;94.80;;;;;;5068976;28;20025;-65
2021/09/03 03:32:52;;;;;;;17.85;12.07;;;14.00;94.90;;;;;;5043312;28;20099;-65
2021/09/03 03:35:18;;;;;;;15.57;12.18;;;14.00;95.00;;;;;;5067250;28;20021;-65
2021/09/03 03:37:43;;;;;;;21.92;13.23;;;14.00;95.10;;;;;;5066759;28;20028;-65
2021/09/03 03:40:09;;;;;;;16.80;12.98;;;14.00;95.30;;;;;;5066718;28;20447;-65
2021/09/03 03:42:35;;;;;;;17.60;12.50;;;13.90;95.40;;;;;;5051052;28;20052;-65
2021/09/03 03:45:01;;;;;;;19.50;13.15;;;13.90;95.50;;;;;;5071677;28;20067;-65
2021/09/03 03:47:26;;;;;;;17.30;12.77;;;13.90;95.60;;;;;;5051722;28;20020;-65
2021/09/03 03:49:52;;;;;;;16.98;12.48;;;13.90;95.70;;;;;;5063622;28;20041;-64
2021/09/03 03:52:17;;;;;;;17.35;12.90;;;13.90;95.70;;;;;;5047018;28;20384;-65
2021/09/03 03:54:43;;;;;;;16.05;12.43;;;13.90;95.80;;;;;;5067302;28;20036;-65
2021/09/03 03:57:08;;;;;;;18.33;13.23;;;13.90;95.90;;;;;;5061086;28;20024;-65
2021/09/03 03:59:34;;;;;;;16.85;13.13;;;13.90;96.00;;;;;;5066716;28;20020;-65
2021/09/03 04:01:59;;;;;;;21.80;14.13;;;13.90;96.00;;;;;;5069003;28;20503;-65
2021/09/03 04:04:25;;;;;;;18.95;13.48;;;13.90;96.20;;;;;;5065621;28;20215;-65
2021/09/03 04:06:50;;;;;;;22.48;14.55;;;13.90;96.20;;;;;;5043152;28;20053;-65
2021/09/03 04:09:16;;;;;;;21.75;13.93;;;13.90;96.30;;;;;;5063227;28;20025;-65
2021/09/03 04:11:41;;;;;;;17.85;12.75;;;13.80;96.30;;;;;;5048484;28;20044;-65
2021/09/03 04:14:08;;;;;;;18.55;13.70;;;13.90;96.40;;;;;;5066063;28;20070;-65
2021/09/03 04:16:33;;;;;;;16.80;12.90;;;13.90;96.50;;;;;;5063651;28;20091;-65
2021/09/03 04:18:59;;;;;;;18.02;13.38;;;13.90;96.50;;;;;;5071036;28;20433;-65
2021/09/03 04:21:30;;;;;;;16.58;11.30;;;13.90;96.40;;;;;;5068649;28;20063;-65
2021/09/03 04:23:55;;;;;;;15.70;12.15;;;13.80;96.50;;;;;;5068235;28;20415;-65
2021/09/03 04:26:21;;;;;;;17.45;12.40;;;13.80;96.50;;;;;;5068796;28;20538;-65
2021/09/03 04:28:46;;;;;;;17.10;11.75;;;13.80;96.50;;;;;;5046538;28;20469;-65
2021/09/03 04:31:22;;;;;;;17.00;11.15;;;13.90;96.50;;;;;;5070330;28;20028;-65
2021/09/03 04:33:47;;;;;;;14.55;11.27;;;13.90;96.50;;;;;;5068436;28;20070;-65
2021/09/03 04:36:13;;;;;;;18.55;11.77;;;13.90;96.50;;;;;;5064303;28;20033;-65
2021/09/03 04:38:39;;;;;;;14.48;11.77;;;13.80;96.50;;;;;;5068630;28;20037;-64
2021/09/03 04:41:04;;;;;;;15.07;11.73;;;13.80;96.50;;;;;;5063877;28;20028;-65
2021/09/03 04:43:30;;;;;;;16.20;11.75;;;13.80;96.80;;;;;;5066355;28;20025;-65
2021/09/03 04:45:56;;;;;;;16.58;11.25;;;13.80;96.60;;;;;;5064094;28;20021;-65
2021/09/03 04:48:21;;;;;;;19.40;13.30;;;13.80;96.60;;;;;;5045199;28;20388;-65
2021/09/03 04:50:47;;;;;;;16.15;11.20;;;13.80;96.60;;;;;;5064761;28;20032;-64
2021/09/03 04:53:12;;;;;;;17.00;12.18;;;13.80;96.60;;;;;;5043188;28;20020;-64
2021/09/03 04:55:38;;;;;;;17.45;12.30;;;13.70;96.60;;;;;;5065613;28;20472;-65
2021/09/03 04:58:03;;;;;;;17.60;12.80;;;13.70;96.60;;;;;;5047663;28;20036;-65
2021/09/03 05:00:29;;;;;;;19.85;12.77;;;13.70;96.70;;;;;;5067995;28;20025;-64
2021/09/03 05:02:55;;;;;;;17.60;12.77;;;13.60;96.70;;;;;;5066122;28;20028;-65
2021/09/03 05:05:20;;;;;;;17.25;12.43;;;13.60;96.80;;;;;;5060512;28;20028;-65
2021/09/03 05:07:46;;;;;;;19.40;13.57;;;13.60;96.80;;;;;;5065243;28;20027;-64
2021/09/03 05:10:11;;;;;;;18.73;14.40;;;13.60;96.80;;;;;;5057332;28;20021;-64
2021/09/03 05:12:38;;;;;;;19.35;13.63;;;13.60;96.90;;;;;;5035256;28;20096;-64
2021/09/03 05:15:11;;;;;;;20.30;13.05;;;13.60;97.00;;;;;;5035492;28;20385;-64
2021/09/03 05:17:39;;;;;;;21.42;13.38;;;13.60;97.00;;;;;;5049654;28;20512;-64
2021/09/03 05:20:05;;;;;;;19.02;13.88;;;13.60;97.00;;;;;;5053927;28;20028;-65
2021/09/03 05:22:33;;;;;;;21.17;13.90;;;13.60;97.10;;;;;;5053732;28;20021;-65
2021/09/03 05:24:59;;;;;;;18.85;14.18;;;13.60;97.10;;;;;;5054077;28;20099;-65
2021/09/03 05:27:24;;;;;;;19.45;14.25;;;13.60;97.10;;;;;;5054144;28;20121;-64
2021/09/03 05:29:50;;;;;;;21.30;14.45;;;13.60;97.20;;;;;;5054034;28;20508;-64
2021/09/03 05:32:15;;;;;;;20.20;14.13;;;13.60;97.20;;;;;;5053824;28;20029;-64
2021/09/03 05:34:41;;;;;;;22.30;15.93;;;13.60;97.30;;;;;;5054078;28;20074;-64
2021/09/03 05:37:07;;;;;;;21.25;15.88;;;13.60;97.30;;;;;;5053808;28;20082;-65
2021/09/03 05:39:32;;;;;;;30.00;18.33;;;13.60;97.40;;;;;;5053864;28;20053;-64
2021/09/03 05:41:58;;;;;;;25.65;19.08;;;13.60;97.50;;;;;;5053475;28;20029;-64
2021/09/03 05:44:23;;;;;;;23.60;17.65;;;13.60;97.60;;;;;;5053780;28;20025;-64
2021/09/03 05:46:49;;;;;;;24.98;17.35;;;13.60;97.70;;;;;;5053619;28;20033;-64
2021/09/03 05:49:14;;;;;;;23.35;16.27;;;13.60;97.80;;;;;;5053731;28;20017;-64
2021/09/03 05:51:40;;;;;;;22.83;17.50;;;13.60;97.90;;;;;;5065149;28;20029;-64
2021/09/03 05:54:08;;;;;;;24.95;17.42;;;13.60;98.00;;;;;;5070107;28;20075;-64
2021/09/03 05:56:35;;;;;;;23.08;17.75;;;13.60;98.10;;;;;;5035738;28;20064;-64
2021/09/03 05:59:02;;;;;;;23.85;17.33;;;13.70;98.20;;;;;;5035445;28;20029;-64
2021/09/03 06:01:27;;;;;;;28.48;19.52;;;13.70;98.30;;;;;;5053557;28;20036;-65
2021/09/03 06:03:53;;;;;;;31.65;20.63;;;13.70;98.40;;;;;;5053417;28;20051;-64
2021/09/03 06:06:18;;;;;;;31.52;19.70;;;13.70;98.60;;;;;;5056125;28;20068;-64
2021/09/03 06:08:44;;;;;;;30.50;20.65;;;13.70;98.60;;;;;;5053267;28;20055;-64
2021/09/03 06:11:09;;;;;;;30.55;21.33;;;13.80;98.70;;;;;;5053084;28;20033;-64
2021/09/03 06:13:36;;;;;;;30.52;20.40;;;13.80;98.80;;;;;;5052813;28;20095;-64
2021/09/03 06:16:02;;;;;;;30.48;21.65;;;13.80;98.90;;;;;;5053079;28;20021;-64
2021/09/03 06:18:27;;;;;;;28.20;20.40;;;13.90;99.00;;;;;;5035148;28;20078;-64
2021/09/03 06:20:53;;;;;;;32.08;21.58;;;13.90;99.10;;;;;;5053235;28;20029;-64
2021/09/03 06:23:18;;;;;;;29.27;20.45;;;14.00;99.10;;;;;;5034723;28;20493;-64
2021/09/03 06:25:44;;;;;;;29.45;21.52;;;14.00;99.20;;;;;;5035205;28;20056;-64
2021/09/03 06:28:09;;;;;;;29.02;20.80;;;14.00;99.30;;;;;;5052743;28;20064;-64
2021/09/03 06:30:35;;;;;;;33.13;22.33;;;14.00;99.30;;;;;;5034857;28;20072;-64
2021/09/03 06:33:00;;;;;;;27.80;19.75;;;14.10;99.40;;;;;;5052767;28;20044;-64
2021/09/03 06:35:26;;;;;;;31.58;22.15;;;14.10;99.40;;;;;;5052749;28;20029;-64
2021/09/03 06:37:52;;;;;;;35.58;24.73;;;14.20;99.50;;;;;;5034623;28;20111;-64
2021/09/03 06:40:17;;;;;;;33.55;23.50;;;14.20;99.60;;;;;;5055907;28;20127;-65
2021/09/03 06:42:43;;;;;;;30.33;21.27;;;14.30;99.70;;;;;;5062475;28;20481;-64
2021/09/03 06:45:10;;;;;;;31.08;22.05;;;14.30;99.90;;;;;;5053659;28;20025;-64
2021/09/03 06:47:36;;;;;;;27.98;21.20;;;14.30;99.70;;;;;;5069308;28;20012;-65
2021/09/03 06:50:04;;;;;;;33.67;23.30;;;14.40;99.70;;;;;;5063199;28;20100;-64
2021/09/03 06:52:30;;;;;;;30.10;21.17;;;14.50;99.70;;;;;;5051839;28;20033;-65
2021/09/03 06:55:00;;;;;;;25.30;20.45;;;14.50;99.70;;;;;;5052573;28;20443;-64
2021/09/03 06:57:29;;;;;;;28.60;21.10;;;14.60;99.70;;;;;;5052375;28;20036;-64
2021/09/03 06:59:54;;;;;;;32.60;22.90;;;14.60;99.70;;;;;;5052697;28;20021;-65
2021/09/03 07:02:20;;;;;;;30.58;22.13;;;14.60;99.70;;;;;;5063408;28;20043;-64
2021/09/03 07:04:48;;;;;;;29.23;20.67;;;14.70;99.70;;;;;;5058397;28;20074;-65
2021/09/03 07:07:14;;;;;;;26.75;19.42;;;14.80;99.70;;;;;;5071595;28;20028;-66
2021/09/03 07:09:39;;;;;;;29.92;20.95;;;14.80;99.70;;;;;;5056751;28;20017;-65
2021/09/03 07:12:05;;;;;;;33.65;22.20;;;14.90;99.70;;;;;;5031178;28;20017;-65
2021/09/03 07:14:31;;;;;;;33.92;23.67;;;15.00;99.70;;;;;;5052355;28;20033;-65
2021/09/03 07:16:56;;;;;;;29.98;21.67;;;15.00;99.80;;;;;;5049945;28;20388;-65
2021/09/03 07:19:22;;;;;;;29.83;22.55;;;15.00;99.80;;;;;;5037057;28;20020;-64
2021/09/03 07:21:48;;;;;;;29.35;20.85;;;15.10;99.80;;;;;;5071778;28;20025;-64
2021/09/03 07:24:13;;;;;;;24.35;18.08;;;15.10;99.80;;;;;;5065976;28;20377;-64
2021/09/03 07:26:39;;;;;;;23.67;17.77;;;15.20;99.80;;;;;;5071705;28;20021;-64
2021/09/03 07:29:05;;;;;;;29.10;21.67;;;15.30;99.70;;;;;;5053970;28;20991;-64
2021/09/03 07:31:32;;;;;;;29.10;20.65;;;15.30;99.70;;;;;;5014489;28;20029;-64
2021/09/03 07:33:57;;;;;;;29.38;22.05;;;15.40;99.70;;;;;;5033984;28;20036;-64
2021/09/03 07:36:23;;;;;;;27.85;20.52;;;15.40;99.70;;;;;;5071474;28;20380;-64
2021/09/03 07:38:48;;;;;;;25.60;20.10;;;15.50;99.70;;;;;;5064170;28;20102;-65
2021/09/03 07:41:14;;;;;;;31.75;21.38;;;15.60;99.60;;;;;;5071237;28;20093;-64
2021/09/03 07:43:40;;;;;;;29.33;21.40;;;15.60;99.60;;;;;;5071643;28;20024;-64
2021/09/03 07:46:05;;;;;;;29.92;21.52;;;15.70;99.60;;;;;;5066058;28;20031;-64
2021/09/03 07:48:35;;;;;;;29.17;20.05;;;15.80;99.60;;;;;;5053572;28;20025;-64
2021/09/03 07:51:01;;;;;;;36.38;21.27;;;15.90;99.50;;;;;;5071573;28;20035;-64
2021/09/03 07:53:27;;;;;;;25.85;19.20;;;15.90;99.50;;;;;;5068683;28;20105;-64
2021/09/03 07:55:52;;;;;;;24.88;18.63;;;16.00;99.50;;;;;;5071626;28;20056;-65
2021/09/03 07:58:18;;;;;;;25.15;18.42;;;16.00;99.40;;;;;;5035310;28;20075;-65
2021/09/03 08:00:43;;;;;;;25.58;17.55;;;16.10;99.30;;;;;;5065176;28;20573;-64
2021/09/03 08:03:09;;;;;;;23.15;17.60;;;16.20;99.30;;;;;;5057966;28;20457;-65
2021/09/03 08:05:35;;;;;;;26.83;20.17;;;16.30;99.20;;;;;;5054612;28;20028;-65
2021/09/03 08:08:02;;;;;;;29.83;20.52;;;16.40;99.10;;;;;;5034104;28;20112;-65
2021/09/03 08:10:31;;;;;;;28.10;20.48;;;16.40;99.00;;;;;;5051454;28;20025;-65
2021/09/03 08:12:57;;;;;;;23.40;18.35;;;16.50;98.90;;;;;;5051977;28;20100;-65
2021/09/03 08:15:23;;;;;;;22.40;17.00;;;16.60;98.80;;;;;;5051637;28;20200;-65
2021/09/03 08:17:48;;;;;;;24.67;18.95;;;16.70;98.80;;;;;;5055103;28;20111;-65
2021/09/03 08:20:14;;;;;;;23.58;17.85;;;16.80;98.70;;;;;;5055139;28;20448;-65
2021/09/03 08:22:40;;;;;;;22.77;17.80;;;16.90;98.60;;;;;;5055237;28;20092;-65
2021/09/03 08:25:06;;;;;;;22.27;16.60;;;16.90;98.50;;;;;;5057394;28;20187;-66
2021/09/03 08:27:32;;;;;;;18.80;14.85;;;17.00;98.70;;;;;;5056341;28;20108;-65
2021/09/03 08:29:58;;;;;;;25.83;17.50;;;17.10;98.30;;;;;;5067935;28;20046;-65
2021/09/03 08:32:24;;;;;;;21.85;16.10;;;17.20;98.20;;;;;;5048563;28;20038;-65
2021/09/03 08:34:49;;;;;;;22.30;16.08;;;17.30;98.10;;;;;;5064953;28;20036;-65
2021/09/03 08:37:15;;;;;;;24.83;17.70;;;17.40;98.00;;;;;;5056125;28;20036;-65
2021/09/03 08:39:41;;;;;;;20.50;16.52;;;17.50;97.80;;;;;;5055139;28;20120;-65
2021/09/03 08:42:07;;;;;;;22.30;16.58;;;17.60;97.70;;;;;;5066553;28;20063;-65
2021/09/03 08:44:33;;;;;;;19.67;15.23;;;17.60;97.50;;;;;;5066830;28;20477;-66
2021/09/03 08:46:59;;;;;;;18.35;14.82;;;17.80;97.40;;;;;;5063917;28;20464;-65
2021/09/03 08:49:25;;;;;;;17.55;13.90;;;17.90;97.30;;;;;;5058983;28;20036;-65
2021/09/03 08:51:52;;;;;;;24.33;17.35;;;18.00;97.10;;;;;;5070988;28;20040;-65
2021/09/03 08:54:21;;;;;;;22.50;16.42;;;18.00;96.90;;;;;;5052777;28;20028;-65
2021/09/03 08:56:47;;;;;;;19.90;13.82;;;18.10;96.50;;;;;;5050216;28;20456;-65
2021/09/03 08:59:14;;;;;;;20.17;16.17;;;18.20;96.40;;;;;;5073782;28;21105;-65
2021/09/03 09:01:39;;;;;;;19.83;16.58;;;18.30;96.20;;;;;;5073793;28;20021;-65
2021/09/03 09:04:14;;;;;;;20.25;15.75;;;18.40;95.90;;;;;;5073705;28;20027;-65
2021/09/03 09:06:59;;;;;;;19.33;14.55;;;18.40;95.70;;;;;;5045299;28;20012;-65
2021/09/03 09:09:30;;;;;;;19.65;14.98;;;18.50;95.60;;;;;;5055613;28;20086;-65
2021/09/03 09:12:02;;;;;;;19.23;14.90;;;18.60;95.40;;;;;;5073373;28;20016;-65
2021/09/03 09:14:28;;;;;;;17.50;12.15;;;18.70;95.30;;;;;;5073460;28;20016;-65
2021/09/03 09:17:01;;;;;;;17.10;13.00;;;18.80;95.20;;;;;;5067835;28;20029;-65
2021/09/03 09:19:27;;;;;;;20.42;14.18;;;18.90;95.00;;;;;;5073605;28;20017;-65
2021/09/03 09:21:59;;;;;;;18.40;12.85;;;19.00;94.80;;;;;;5070875;28;20031;-65
2021/09/03 09:24:24;;;;;;;19.35;14.77;;;19.10;94.60;;;;;;5069860;28;20158;-65
2021/09/03 09:26:58;;;;;;;16.33;13.13;;;19.20;94.50;;;;;;5041098;28;20111;-65
2021/09/03 09:29:31;;;;;;;15.73;12.80;;;19.30;94.30;;;;;;5045392;28;20021;-65
2021/09/03 09:32:13;;;;;;;12.15;10.18;;;19.40;94.10;;;;;;5067419;28;20037;-65
2021/09/03 09:34:41;;;;;;;16.67;13.00;;;19.50;94.00;;;;;;5068636;28;20028;-65
2021/09/03 09:37:18;;;;;;;16.90;12.38;;;19.60;93.70;;;;;;5046889;28;20040;-65
2021/09/03 09:39:57;;;;;;;15.27;12.13;;;19.70;93.30;;;;;;5057344;28;20037;-65
2021/09/03 09:42:35;;;;;;;18.13;12.82;;;19.80;93.10;;;;;;5023718;28;20591;-65
2021/09/03 09:45:06;;;;;;;16.20;12.13;;;19.90;92.90;;;;;;5069777;28;20083;-65
2021/09/03 09:47:32;;;;;;;15.13;10.32;;;20.00;92.80;;;;;;5051905;28;20104;-65
2021/09/03 09:50:29;;;;;;;11.45;8.48;;;20.10;92.80;;;;;;5033885;28;20474;-65
2021/09/03 09:53:11;;;;;;;12.20;9.05;;;20.20;92.30;;;;;;5023961;28;20035;-66
2021/09/03 09:55:44;;;;;;;14.77;10.98;;;20.30;92.00;;;;;;5048716;28;20492;-65
2021/09/03 09:58:14;;;;;;;13.43;9.38;;;20.50;91.70;;;;;;5054452;28;20021;-65
2021/09/03 10:00:40;;;;;;;10.30;8.35;;;20.50;91.60;;;;;;5043518;28;20016;-66
2021/09/03 10:03:06;;;;;;;14.00;10.52;;;20.60;91.40;;;;;;5057742;28;20025;-65
2021/09/03 10:05:34;;;;;;;12.57;9.10;;;20.80;91.00;;;;;;5037954;28;20025;-66
2021/09/03 10:08:00;;;;;;;13.40;9.88;;;20.90;90.80;;;;;;5051759;28;20025;-66
2021/09/03 10:10:26;;;;;;;15.75;10.07;;;21.10;90.50;;;;;;5021515;28;20025;-66
2021/09/03 10:12:52;;;;;;;13.02;10.10;;;21.20;90.10;;;;;;5068466;28;20038;-66
2021/09/03 10:15:18;;;;;;;10.15;7.82;;;21.30;89.70;;;;;;5064299;28;20025;-66
2021/09/03 10:17:44;;;;;;;12.13;8.98;;;21.50;89.60;;;;;;5057611;28;20032;-66
2021/09/03 10:20:10;;;;;;;11.68;7.70;;;21.60;88.70;;;;;;5068294;28;20059;-66
2021/09/03 10:22:44;;;;;;;11.82;8.38;;;21.70;88.40;;;;;;5032497;28;20053;-66
2021/09/03 10:25:10;;;;;;;12.38;8.65;;;22.00;87.90;;;;;;5040974;28;20033;-65
2021/09/03 10:27:37;;;;;;;11.07;7.90;;;22.10;87.40;;;;;;5048604;28;20242;-66
2021/09/03 10:30:14;;;;;;;13.15;10.13;;;22.30;87.10;;;;;;5054218;28;20087;-66
2021/09/03 10:32:40;;;;;;;10.32;7.93;;;22.50;86.00;;;;;;5033268;28;20027;-66
2021/09/03 10:35:21;;;;;;;10.63;7.68;;;22.60;85.70;;;;;;5059351;28;20100;-66
2021/09/03 10:37:46;;;;;;;9.98;7.63;;;22.90;85.30;;;;;;5059640;28;20049;-66
2021/09/03 10:40:22;;;;;;;9.38;6.68;;;23.10;84.90;;;;;;5056009;28;20081;-66
2021/09/03 10:42:55;;;;;;;13.00;8.90;;;23.30;84.20;;;;;;5052845;28;20504;-66
2021/09/03 10:45:29;;;;;;;8.63;7.18;;;23.50;83.30;;;;;;5049292;28;20029;-66
2021/09/03 10:47:57;;;;;;;8.82;6.57;;;23.70;82.80;;;;;;5061780;28;20029;-66
2021/09/03 10:50:45;;;;;;;11.75;8.80;;;24.00;82.40;;;;;;5052507;28;20075;-66
2021/09/03 10:53:10;;;;;;;11.98;7.78;;;24.20;81.40;;;;;;5059918;28;20480;-66
2021/09/03 10:56:07;;;;;;;9.32;6.88;;;24.50;81.20;;;;;;5065704;28;20086;-66
2021/09/03 10:58:46;;;;;;;9.00;7.13;;;25.00;81.20;;;;;;5061455;28;20694;-66
2021/09/03 11:01:12;;;;;;;7.85;6.35;;;26.70;78.40;;;;;;5040730;28;20041;-66
2021/09/03 11:03:45;;;;;;;8.57;6.15;;;29.20;73.90;;;;;;5063689;28;20028;-66
2021/09/03 11:06:27;;;;;;;6.60;5.10;;;31.40;65.90;;;;;;5053517;28;20063;-66
2021/09/03 11:08:54;;;;;;;6.72;5.13;;;33.50;60.80;;;;;;5051158;28;20063;-66
2021/09/03 11:11:35;;;;;;;7.45;5.78;;;35.20;55.90;;;;;;5061041;28;20054;-66
2021/09/03 11:14:10;;;;;;;11.93;5.63;;;35.70;53.10;;;;;;5054046;28;20044;-66
2021/09/03 11:16:43;;;;;;;6.25;5.55;;;35.50;51.30;;;;;;5056857;28;20017;-66
2021/09/03 11:19:12;;;;;;;6.47;5.43;;;35.10;51.10;;;;;;5054003;28;20032;-66
2021/09/03 11:21:48;;;;;;;5.60;4.90;;;34.70;51.50;;;;;;5033525;28;20093;-66
2021/09/03 11:24:16;;;;;;;5.53;5.00;;;34.60;52.60;;;;;;5032439;28;20028;-66
2021/09/03 11:26:43;;;;;;;5.65;4.57;;;34.80;52.70;;;;;;5032620;28;20079;-66
2021/09/03 11:29:40;;;;;;;7.10;4.97;;;35.90;52.40;;;;;;5032374;28;20037;-66
2021/09/03 11:32:09;;;;;;;6.75;4.95;;;37.50;50.70;;;;;;5032571;28;20068;-66
2021/09/03 11:34:55;;;;;;;4.60;4.18;;;38.80;48.00;;;;;;5033263;28;20484;-66
2021/09/03 11:37:43;;;;;;;5.65;4.00;;;40.00;47.00;;;;;;5032189;28;20389;-67
2021/09/03 11:40:22;;;;;;;4.38;3.97;;;41.10;45.80;;;;;;5032207;28;20053;-66
2021/09/03 11:42:50;;;;;;;5.47;5.00;;;41.70;43.00;;;;;;5043767;28;20025;-67
2021/09/03 11:45:20;;;;;;;6.07;4.75;;;42.70;41.90;;;;;;5051380;28;20032;-66
2021/09/03 11:48:00;;;;;;;7.85;5.78;;;43.60;39.50;;;;;;5051558;28;20021;-66
2021/09/03 11:50:43;;;;;;;5.25;4.75;;;44.20;37.70;;;;;;5054639;28;20048;-66
2021/09/03 11:53:29;;;;;;;4.38;3.95;;;45.00;38.10;;;;;;5057530;28;20051;-66
2021/09/03 11:55:55;;;;;;;5.07;4.57;;;45.50;37.40;;;;;;5056350;28;20066;-66
2021/09/03 11:58:22;;;;;;;5.50;5.00;;;46.10;36.40;;;;;;5068973;28;20094;-66
2021/09/03 12:00:53;;;;;;;5.82;4.10;;;46.40;35.90;;;;;;5069274;28;20028;-67
2021/09/03 12:03:33;;;;;;;5.30;4.80;;;46.90;35.80;;;;;;5063408;28;20029;-66
2021/09/03 12:06:02;;;;;;;6.47;5.18;;;46.80;34.90;;;;;;5058210;28;20096;-66
2021/09/03 12:08:35;;;;;;;5.32;4.65;;;46.80;34.00;;;;;;5055632;28;20503;-67
2021/09/03 12:11:23;;;;;;;5.18;4.70;;;47.10;34.00;;;;;;5061717;28;20074;-67
2021/09/03 12:13:55;;;;;;;5.43;4.93;;;47.60;34.10;;;;;;5067605;28;20024;-67
2021/09/03 12:16:41;;;;;;;6.32;4.05;;;47.80;33.80;;;;;;5062811;28;20032;-67
2021/09/03 12:19:13;;;;;;;4.60;4.20;;;47.80;33.80;;;;;;5058052;28;20489;-66
2021/09/03 12:21:42;;;;;;;4.47;4.07;;;47.90;34.20;;;;;;5048585;28;20031;-66
2021/09/03 12:24:10;;;;;;;5.68;4.40;;;48.10;33.70;;;;;;5068033;28;20056;-66
2021/09/03 12:26:37;;;;;;;5.15;4.70;;;47.60;33.60;;;;;;5066643;28;20099;-66
2021/09/03 12:29:07;;;;;;;4.63;4.17;;;47.20;33.70;;;;;;5061862;28;20437;-66
2021/09/03 12:31:32;;;;;;;5.68;5.18;;;47.00;34.10;;;;;;5056230;28;20037;-66
2021/09/03 12:34:00;;;;;;;5.20;4.68;;;46.60;33.70;;;;;;5068044;28;20041;-67
2021/09/03 12:36:28;;;;;;;;;;;46.10;34.00;;;;;;5067174;28;20397;-66